< < Back
Terminal Aerodrome Forecast


Current Version              Previous Versions:   1  2  3  4  5  6  7  8  9  

Terminal Aerodrome Forecast

467
FTUS42 KJAX 221500 AAA
TAFGNV
TAF AMD
KGNV 221515Z 2215/2312 04008KT P6SM VCSH OVC035
     FM221800 06010G16KT P6SM -RA BKN025 OVC070
     FM230000 08010KT 5SM -RA BR OVC008 WS020/12040KT=

Latest METAR

414
SAUS70 KWBC 230300 RRA
MTRGNV
METAR KGNV 230253Z 10010KT 10SM OVC029 20/17 A3015 RMK AO2 SLP208
T02000172 55005


USA.gov is the U.S. government's official web portal to all federal, state and local government web resources and services.